createdAt,value
2022-10-08T00:00:35.158Z,76.67
2022-10-08T00:01:35.587Z,76.90
2022-10-08T00:02:35.220Z,76.90
2022-10-08T00:03:35.271Z,76.90
2022-10-08T00:04:35.337Z,76.86
2022-10-08T00:05:35.320Z,76.86
2022-10-08T00:06:35.348Z,76.90
2022-10-08T00:07:35.377Z,76.67
2022-10-08T00:08:35.712Z,76.70
2022-10-08T00:09:35.461Z,76.76
2022-10-08T00:10:35.475Z,76.95
2022-10-08T00:11:35.504Z,76.57
2022-10-08T00:12:35.555Z,76.76
2022-10-08T00:13:35.570Z,76.90
2022-10-08T00:14:35.627Z,76.76
2022-10-08T00:15:35.932Z,76.70
2022-10-08T00:16:35.680Z,76.67
2022-10-08T00:17:35.694Z,76.37
2022-10-08T00:18:35.724Z,76.76
2022-10-08T00:19:35.761Z,76.70
2022-10-08T00:20:35.787Z,76.70
2022-10-08T00:21:35.826Z,76.70
2022-10-08T00:22:36.155Z,76.76
2022-10-08T00:23:35.881Z,76.67
2022-10-08T00:24:35.910Z,76.80
2022-10-08T00:25:35.949Z,76.90
2022-10-08T00:26:41.146Z,76.90
2022-10-08T00:27:36.007Z,76.76
2022-10-08T00:28:36.164Z,76.70
2022-10-08T00:29:36.369Z,76.70
2022-10-08T00:30:36.101Z,76.67
2022-10-08T00:31:36.198Z,76.86
2022-10-08T00:32:36.166Z,76.90
2022-10-08T00:33:36.199Z,76.67
2022-10-08T00:34:36.228Z,76.90
2022-10-08T00:35:36.261Z,77.15
2022-10-08T00:36:36.590Z,76.70
2022-10-08T00:37:36.325Z,77.09
2022-10-08T00:38:36.360Z,76.80
2022-10-08T00:39:36.386Z,76.67
2022-10-08T00:40:36.415Z,77.00
2022-10-08T00:41:36.449Z,76.95
2022-10-08T00:42:36.477Z,76.67
2022-10-08T00:43:36.813Z,76.70
2022-10-08T00:44:36.563Z,75.99
2022-10-08T00:45:36.685Z,76.61
2022-10-08T00:46:36.609Z,76.47
2022-10-08T00:47:36.649Z,76.70
2022-10-08T00:48:36.672Z,76.61
2022-10-08T00:49:36.738Z,76.18
2022-10-08T00:50:37.033Z,76.47
2022-10-08T00:51:36.764Z,76.76
2022-10-08T00:52:36.795Z,76.76
2022-10-08T00:53:36.831Z,76.76
2022-10-08T00:54:36.864Z,76.67
2022-10-08T00:55:41.205Z,76.70
2022-10-08T00:56:37.220Z,76.76
2022-10-08T00:57:36.953Z,76.86
2022-10-08T00:58:36.982Z,76.76
2022-10-08T00:59:37.013Z,76.95
2022-10-08T01:00:37.125Z,76.95
2022-10-08T01:01:37.139Z,76.95
2022-10-08T01:02:37.408Z,76.95
2022-10-08T01:03:37.144Z,76.86
2022-10-08T01:04:37.173Z,76.86
2022-10-08T01:05:37.202Z,76.86
2022-10-08T01:06:37.234Z,76.67
2022-10-08T01:07:37.267Z,76.67
2022-10-08T01:08:37.599Z,76.67
2022-10-08T01:09:37.355Z,76.67
2022-10-08T01:10:37.366Z,76.86
2022-10-08T01:11:37.394Z,76.57
2022-10-08T01:12:37.421Z,76.67
2022-10-08T01:13:37.512Z,76.57
2022-10-08T01:14:37.488Z,76.76
2022-10-08T01:15:37.831Z,76.86
2022-10-08T01:16:37.601Z,76.86
2022-10-08T01:17:37.601Z,76.86
2022-10-08T01:18:37.609Z,76.57
2022-10-08T01:19:37.643Z,76.67
2022-10-08T01:20:37.675Z,76.76
2022-10-08T01:21:37.708Z,76.67
2022-10-08T01:22:38.038Z,76.57
2022-10-08T01:23:37.770Z,76.67
2022-10-08T01:24:37.814Z,76.76
2022-10-08T01:25:37.838Z,76.76
2022-10-08T01:26:37.865Z,76.09
2022-10-08T01:27:37.894Z,76.18
2022-10-08T01:28:37.979Z,76.76
2022-10-08T01:29:38.259Z,76.86
2022-10-08T01:30:37.989Z,76.37
2022-10-08T01:31:38.052Z,76.18
2022-10-08T01:32:38.071Z,76.18
2022-10-08T01:33:38.084Z,76.67
2022-10-08T01:34:38.116Z,76.76
2022-10-08T01:35:38.150Z,76.76
2022-10-08T01:36:38.477Z,76.76
2022-10-08T01:37:38.212Z,76.76
2022-10-08T01:38:38.239Z,76.57
2022-10-08T01:39:38.273Z,76.47
2022-10-08T01:40:38.306Z,76.18
2022-10-08T01:41:38.337Z,76.57
2022-10-08T01:42:38.365Z,76.09
2022-10-08T01:43:38.702Z,76.57
2022-10-08T01:44:38.429Z,76.09
2022-10-08T01:45:38.512Z,76.47
2022-10-08T01:46:38.496Z,76.76
2022-10-08T01:47:38.522Z,76.18
2022-10-08T01:48:38.578Z,76.76
2022-10-08T01:49:38.591Z,76.09
2022-10-08T01:50:38.915Z,76.76
2022-10-08T01:51:38.652Z,76.67
2022-10-08T01:52:38.723Z,76.86
2022-10-08T01:53:38.710Z,76.86
2022-10-08T01:54:38.744Z,76.57
2022-10-08T01:55:38.773Z,76.57
2022-10-08T01:56:38.803Z,76.76
2022-10-08T01:57:39.141Z,76.57
2022-10-08T01:58:38.921Z,76.76
2022-10-08T01:59:38.898Z,76.76
2022-10-08T02:00:38.959Z,76.57
2022-10-08T02:01:38.963Z,76.28
2022-10-08T02:02:39.251Z,76.57
2022-10-08T02:03:39.025Z,76.76
2022-10-08T02:04:39.377Z,76.76
2022-10-08T02:05:39.087Z,76.67
2022-10-08T02:06:39.119Z,76.67
2022-10-08T02:07:39.150Z,76.76
2022-10-08T02:08:39.186Z,76.76
2022-10-08T02:09:39.214Z,76.72
2022-10-08T02:10:39.242Z,76.92
2022-10-08T02:11:39.576Z,77.05
2022-10-08T02:12:39.305Z,76.86
2022-10-08T02:13:39.343Z,76.95
2022-10-08T02:14:39.371Z,76.53
2022-10-08T02:15:39.399Z,76.67
2022-10-08T02:16:39.455Z,76.82
2022-10-08T02:17:39.464Z,76.76
2022-10-08T02:18:39.796Z,76.63
2022-10-08T02:19:39.526Z,76.63
2022-10-08T02:20:39.586Z,76.63
2022-10-08T02:21:39.598Z,76.63
2022-10-08T02:22:39.618Z,77.05
2022-10-08T02:23:39.660Z,76.76
2022-10-08T02:24:39.685Z,76.76
2022-10-08T02:25:40.020Z,76.63
2022-10-08T02:26:39.792Z,77.11
2022-10-08T02:28:39.875Z,77.15
2022-10-08T02:29:39.840Z,77.25
2022-10-08T02:30:39.877Z,77.25
2022-10-08T02:31:39.955Z,76.86
2022-10-08T02:32:40.279Z,77.34
2022-10-08T02:33:39.970Z,77.01
2022-10-08T02:34:40.003Z,77.05
2022-10-08T02:35:40.025Z,77.11
2022-10-08T02:36:40.079Z,76.95
2022-10-08T02:37:40.090Z,77.01
2022-10-08T02:38:40.126Z,77.30
2022-10-08T02:39:40.455Z,77.30
2022-10-08T02:40:40.187Z,77.30
2022-10-08T02:41:40.216Z,77.40
2022-10-08T02:42:40.248Z,77.40
2022-10-08T02:43:40.291Z,77.21
2022-10-08T02:44:40.311Z,77.30
2022-10-08T02:45:40.713Z,77.34
2022-10-08T02:46:40.377Z,77.30
2022-10-08T02:47:40.407Z,77.53
2022-10-08T02:48:40.435Z,77.30
2022-10-08T02:49:40.464Z,77.34
2022-10-08T02:50:40.499Z,77.21
2022-10-08T02:51:40.826Z,77.21
2022-10-08T02:52:40.583Z,77.25
2022-10-08T02:53:40.592Z,77.11
2022-10-08T02:54:40.622Z,77.11
2022-10-08T02:55:40.657Z,77.25
2022-10-08T02:56:40.690Z,77.30
2022-10-08T02:57:41.020Z,77.30
2022-10-08T02:58:40.753Z,77.25
2022-10-08T02:59:40.778Z,77.30
2022-10-08T03:00:40.811Z,77.40
2022-10-08T03:01:40.908Z,77.11
2022-10-08T03:02:40.935Z,77.15
2022-10-08T03:03:40.904Z,77.53
2022-10-08T03:04:41.328Z,77.21
2022-10-08T03:05:40.967Z,77.25
2022-10-08T03:06:40.997Z,77.25
2022-10-08T03:07:41.027Z,77.21
2022-10-08T03:08:41.083Z,77.15
2022-10-08T03:09:41.089Z,77.11
2022-10-08T03:10:41.124Z,77.11
2022-10-08T03:11:41.453Z,77.11
2022-10-08T03:12:41.184Z,77.01
2022-10-08T03:13:41.223Z,77.11
2022-10-08T03:14:41.254Z,77.01
2022-10-08T03:15:41.281Z,77.01
2022-10-08T03:16:41.370Z,77.11
2022-10-08T03:17:41.342Z,77.11
2022-10-08T03:18:41.686Z,77.25
2022-10-08T03:19:41.402Z,77.63
2022-10-08T03:20:41.435Z,77.01
2022-10-08T03:21:41.464Z,77.11
2022-10-08T03:22:41.504Z,77.11
2022-10-08T03:23:41.535Z,77.01
2022-10-08T03:24:41.583Z,77.11
2022-10-08T03:25:41.891Z,77.01
2022-10-08T03:26:41.624Z,77.21
2022-10-08T03:27:41.653Z,76.92
2022-10-08T03:28:41.786Z,77.01
2022-10-08T03:29:41.714Z,77.11
2022-10-08T03:30:41.803Z,77.11
2022-10-08T03:31:41.777Z,77.50
2022-10-08T03:32:42.116Z,77.59
2022-10-08T03:33:41.840Z,77.69
2022-10-08T03:34:41.872Z,77.69
2022-10-08T03:35:41.902Z,77.40
2022-10-08T03:36:41.932Z,77.40
2022-10-08T03:37:41.969Z,77.69
2022-10-08T03:38:41.997Z,77.40
2022-10-08T03:39:42.329Z,77.50
2022-10-08T03:40:42.188Z,77.40
2022-10-08T03:41:42.094Z,77.40
2022-10-08T03:42:42.129Z,77.50
2022-10-08T03:43:42.154Z,77.59
2022-10-08T03:44:42.186Z,77.50
2022-10-08T03:45:42.264Z,77.50
2022-10-08T03:46:42.565Z,77.30
2022-10-08T03:47:42.276Z,77.50
2022-10-08T03:48:42.309Z,77.40
2022-10-08T03:49:42.341Z,77.40
2022-10-08T03:50:42.372Z,77.30
2022-10-08T03:51:42.408Z,77.30
2022-10-08T03:52:42.436Z,77.30
2022-10-08T03:53:42.765Z,77.40
2022-10-08T03:54:42.504Z,77.30
2022-10-08T03:55:42.534Z,77.40
2022-10-08T03:56:42.582Z,77.30
2022-10-08T03:57:42.592Z,77.40
2022-10-08T03:59:42.653Z,77.30
2022-10-08T04:00:42.987Z,77.30
2022-10-08T04:01:42.793Z,77.30
2022-10-08T04:02:42.829Z,77.40
2022-10-08T04:03:42.776Z,77.40
2022-10-08T04:04:42.811Z,77.59
2022-10-08T04:05:42.865Z,77.30
2022-10-08T04:06:42.871Z,77.59
2022-10-08T04:07:43.203Z,77.59
2022-10-08T04:08:42.938Z,77.40
2022-10-08T04:09:42.965Z,77.40
2022-10-08T04:10:42.995Z,77.40
2022-10-08T04:11:43.040Z,77.30
2022-10-08T04:12:43.080Z,77.40
2022-10-08T04:13:43.091Z,77.30
2022-10-08T04:14:43.421Z,77.59
2022-10-08T04:15:43.207Z,77.50
2022-10-08T04:16:43.194Z,77.59
2022-10-08T04:17:43.213Z,77.59
2022-10-08T04:18:43.248Z,76.82
2022-10-08T04:19:43.277Z,77.50
2022-10-08T04:20:43.308Z,77.50
2022-10-08T04:21:43.646Z,77.50
2022-10-08T04:22:43.379Z,77.11
2022-10-08T04:23:43.405Z,77.01
2022-10-08T04:24:43.435Z,77.11
2022-10-08T04:25:43.469Z,77.11
2022-10-08T04:26:43.498Z,77.21
2022-10-08T04:27:43.525Z,77.11
2022-10-08T04:28:43.973Z,77.30
2022-10-08T04:29:43.595Z,77.01
2022-10-08T04:30:43.759Z,77.01
2022-10-08T04:31:43.657Z,77.50
2022-10-08T04:32:43.843Z,77.40
2022-10-08T04:33:43.715Z,77.01
2022-10-08T04:34:44.056Z,77.11
2022-10-08T04:35:43.779Z,76.82
2022-10-08T04:36:43.816Z,77.01
2022-10-08T04:37:43.842Z,76.92
2022-10-08T04:38:43.870Z,77.01
2022-10-08T04:39:43.901Z,76.82
2022-10-08T04:40:44.235Z,76.92
2022-10-08T04:41:43.968Z,76.92
2022-10-08T04:42:44.280Z,76.92
2022-10-08T04:43:44.026Z,76.92
2022-10-08T04:44:44.078Z,77.01
2022-10-08T04:45:44.088Z,76.82
2022-10-08T04:46:44.540Z,76.92
2022-10-08T04:47:44.150Z,76.92
2022-10-08T04:48:44.186Z,77.01
2022-10-08T04:49:44.211Z,77.01
2022-10-08T04:50:44.246Z,76.82
2022-10-08T04:51:44.276Z,77.01
2022-10-08T04:52:44.611Z,77.30
2022-10-08T04:53:44.638Z,77.21
2022-10-08T04:54:44.376Z,77.11
2022-10-08T04:55:44.398Z,76.53
2022-10-08T04:56:44.464Z,76.72
2022-10-08T04:57:44.462Z,77.30
2022-10-08T04:58:44.548Z,76.82
2022-10-08T05:00:05.755Z,76.82
2022-10-08T05:00:44.576Z,77.30
2022-10-08T05:01:44.671Z,76.92
2022-10-08T05:02:45.104Z,77.01
2022-10-08T05:03:44.651Z,77.01
2022-10-08T05:04:44.683Z,77.21
2022-10-08T05:05:44.713Z,77.01
2022-10-08T05:06:45.048Z,77.21
2022-10-08T05:07:44.773Z,77.11
2022-10-08T05:08:44.815Z,77.21
2022-10-08T05:09:44.836Z,77.11
2022-10-08T05:10:44.868Z,77.59
2022-10-08T05:11:44.901Z,77.69
2022-10-08T05:12:45.269Z,77.40
2022-10-08T05:13:45.262Z,77.69
2022-10-08T05:14:44.991Z,77.59
2022-10-08T05:15:45.091Z,77.30
2022-10-08T05:16:45.079Z,77.11
2022-10-08T05:17:45.092Z,77.01
2022-10-08T05:18:45.115Z,77.01
2022-10-08T05:19:45.150Z,77.11
2022-10-08T05:20:45.485Z,77.30
2022-10-08T05:21:45.209Z,77.50
2022-10-08T05:22:45.814Z,77.50
2022-10-08T05:23:45.272Z,77.01
2022-10-08T05:24:45.306Z,77.11
2022-10-08T05:25:45.333Z,77.59
2022-10-08T05:27:00.648Z,77.40
2022-10-08T05:27:45.399Z,77.50
2022-10-08T05:28:45.474Z,77.69
2022-10-08T05:29:45.459Z,77.59
2022-10-08T05:30:45.538Z,77.21
2022-10-08T05:31:45.520Z,77.21
2022-10-08T05:32:45.953Z,77.30
2022-10-08T05:33:45.883Z,77.30
2022-10-08T05:34:45.622Z,77.30
2022-10-08T05:35:45.644Z,77.88
2022-10-08T05:36:45.683Z,77.21
2022-10-08T05:37:45.710Z,77.78
2022-10-08T05:38:45.751Z,77.98
2022-10-08T05:39:46.073Z,77.98
2022-10-08T05:40:45.802Z,77.40
2022-10-08T05:41:45.835Z,77.30
2022-10-08T05:42:46.239Z,77.69
2022-10-08T05:43:45.920Z,77.88
2022-10-08T05:44:45.924Z,77.50
2022-10-08T05:45:46.257Z,77.40
2022-10-08T05:46:46.085Z,77.40
2022-10-08T05:47:46.019Z,77.88
2022-10-08T05:48:46.070Z,77.59
2022-10-08T05:49:46.078Z,77.30
2022-10-08T05:50:46.114Z,77.40
2022-10-08T05:51:46.440Z,77.40
2022-10-08T05:52:46.386Z,77.69
2022-10-08T05:53:46.211Z,77.40
2022-10-08T05:54:46.242Z,77.30
2022-10-08T05:55:46.266Z,77.40
2022-10-08T05:56:46.497Z,77.30
2022-10-08T05:57:46.334Z,77.21
2022-10-08T05:58:46.671Z,77.59
2022-10-08T05:59:46.390Z,77.40
2022-10-08T06:00:46.430Z,77.40
2022-10-08T06:01:46.455Z,77.30
2022-10-08T06:02:46.948Z,77.21
2022-10-08T06:03:46.516Z,76.92
2022-10-08T06:04:46.646Z,77.40
2022-10-08T06:05:46.880Z,76.92
2022-10-08T06:06:46.609Z,77.40
2022-10-08T06:07:46.640Z,77.11
2022-10-08T06:08:46.671Z,77.59
2022-10-08T06:09:46.700Z,77.50
2022-10-08T06:10:46.734Z,77.30
2022-10-08T06:11:46.762Z,77.30
2022-10-08T06:12:47.388Z,77.01
2022-10-08T06:13:46.876Z,77.01
2022-10-08T06:14:46.861Z,77.30
2022-10-08T06:15:46.902Z,77.30
2022-10-08T06:16:46.920Z,77.30
2022-10-08T06:17:46.949Z,76.82
2022-10-08T06:18:46.985Z,76.72
2022-10-08T06:19:47.310Z,76.92
2022-10-08T06:20:47.073Z,76.82
2022-10-08T06:21:47.073Z,76.43
2022-10-08T06:22:47.714Z,76.63
2022-10-08T06:23:47.139Z,76.34
2022-10-08T06:24:47.172Z,76.15
2022-10-08T06:25:47.198Z,75.76
2022-10-08T06:26:47.534Z,75.85
2022-10-08T06:27:47.261Z,75.57
2022-10-08T06:28:47.343Z,76.15
2022-10-08T06:29:47.323Z,75.76
2022-10-08T06:30:47.355Z,75.76
2022-10-08T06:31:47.462Z,76.05
2022-10-08T06:32:47.719Z,75.85
2022-10-08T06:33:48.274Z,75.67
2022-10-08T06:34:47.485Z,75.85
2022-10-08T06:35:47.513Z,75.47
2022-10-08T06:36:47.562Z,75.57
2022-10-08T06:37:47.575Z,75.57
2022-10-08T06:38:47.606Z,75.67
2022-10-08T06:39:48.652Z,75.37
2022-10-08T06:40:48.077Z,75.85
2022-10-08T06:41:47.694Z,75.47
2022-10-08T06:43:47.763Z,75.57
2022-10-08T06:44:47.785Z,75.57
2022-10-08T06:45:47.825Z,75.18
2022-10-08T06:46:47.952Z,75.27
2022-10-08T06:47:48.186Z,75.27
2022-10-08T06:48:47.917Z,75.09
2022-10-08T06:49:47.945Z,74.69
2022-10-08T06:50:48.041Z,75.18
2022-10-08T06:51:48.111Z,74.89
2022-10-08T06:52:48.595Z,74.69
2022-10-08T06:53:48.080Z,74.89
2022-10-08T06:54:48.399Z,74.69
2022-10-08T06:55:48.130Z,75.18
2022-10-08T06:56:48.162Z,74.89
2022-10-08T06:57:48.199Z,75.27
2022-10-08T06:58:48.222Z,75.18
2022-10-08T06:59:48.259Z,75.37
2022-10-08T07:00:48.388Z,75.18
2022-10-08T07:01:48.771Z,75.18
2022-10-08T07:02:48.839Z,75.27
2022-10-08T07:03:48.383Z,75.57
2022-10-08T07:04:48.410Z,75.18
2022-10-08T07:05:48.444Z,75.27
2022-10-08T07:06:48.470Z,75.09
2022-10-08T07:07:48.508Z,75.18
2022-10-08T07:08:48.856Z,74.60
2022-10-08T07:09:48.563Z,74.79
2022-10-08T07:10:48.595Z,74.69
2022-10-08T07:11:48.625Z,74.51
2022-10-08T07:12:48.904Z,74.41
2022-10-08T07:13:48.689Z,75.09
2022-10-08T07:14:49.026Z,74.60
2022-10-08T07:15:48.759Z,74.41
2022-10-08T07:16:48.836Z,74.60
2022-10-08T07:17:48.817Z,74.21
2022-10-08T07:18:48.876Z,74.60
2022-10-08T07:19:48.878Z,74.60
2022-10-08T07:20:49.208Z,74.73
2022-10-08T07:21:48.937Z,74.89
2022-10-08T07:22:49.562Z,74.79
2022-10-08T07:23:49.007Z,74.51
2022-10-08T07:24:49.049Z,74.69
2022-10-08T07:25:49.064Z,74.89
2022-10-08T07:26:49.395Z,74.60
2022-10-08T07:27:49.127Z,73.93
2022-10-08T07:28:49.153Z,74.02
2022-10-08T07:29:49.185Z,74.21
2022-10-08T07:30:49.212Z,74.93
2022-10-08T07:31:49.349Z,74.21
2022-10-08T07:32:49.714Z,74.12
2022-10-08T07:33:49.622Z,74.41
2022-10-08T07:34:49.336Z,73.93
2022-10-08T07:35:49.374Z,74.21
2022-10-08T07:36:49.409Z,74.51
2022-10-08T07:37:49.434Z,74.02
2022-10-08T07:38:49.462Z,74.12
2022-10-08T07:39:49.495Z,74.21
2022-10-08T07:40:49.850Z,74.12
2022-10-08T07:41:49.563Z,74.31
2022-10-08T07:42:50.046Z,74.31
2022-10-08T07:43:49.620Z,73.93
2022-10-08T07:44:49.650Z,74.21
2022-10-08T07:45:49.737Z,74.31
2022-10-08T07:46:49.713Z,74.21
2022-10-08T07:47:50.050Z,74.25
2022-10-08T07:48:49.776Z,74.31
2022-10-08T07:49:49.810Z,74.41
2022-10-08T07:50:49.836Z,74.41
2022-10-08T07:51:49.871Z,74.12
2022-10-08T07:52:50.300Z,74.06
2022-10-08T07:53:49.936Z,74.02
2022-10-08T07:54:50.262Z,74.35
2022-10-08T07:55:49.991Z,74.31
2022-10-08T07:56:50.083Z,74.21
2022-10-08T07:57:50.060Z,74.25
2022-10-08T07:58:50.084Z,74.31
2022-10-08T07:59:50.135Z,74.21
2022-10-08T08:00:50.245Z,74.54
2022-10-08T08:01:50.558Z,74.25
2022-10-08T08:02:50.288Z,74.31
2022-10-08T08:03:50.241Z,74.21
2022-10-08T08:04:50.273Z,74.16
2022-10-08T08:05:50.365Z,74.35
2022-10-08T08:06:50.335Z,74.35
2022-10-08T08:07:53.268Z,74.25
2022-10-08T08:08:50.699Z,74.35
2022-10-08T08:09:50.462Z,74.25
2022-10-08T08:10:50.459Z,74.31
2022-10-08T08:11:50.497Z,74.16
2022-10-08T08:12:50.814Z,74.21
2022-10-08T08:13:50.556Z,74.35
2022-10-08T08:14:50.586Z,74.31
2022-10-08T08:15:50.917Z,74.16
2022-10-08T08:16:50.703Z,74.25
2022-10-08T08:17:50.677Z,73.96
2022-10-08T08:18:50.712Z,74.12
2022-10-08T08:19:50.743Z,74.35
2022-10-08T08:20:50.781Z,74.35
2022-10-08T08:21:50.814Z,73.58
2022-10-08T08:22:51.131Z,73.86
2022-10-08T08:23:50.867Z,74.16
2022-10-08T08:24:50.900Z,73.86
2022-10-08T08:25:50.926Z,73.58
2022-10-08T08:26:54.315Z,74.16
2022-10-08T08:27:50.991Z,73.38
2022-10-08T08:29:51.374Z,73.38
2022-10-08T08:30:51.083Z,73.58
2022-10-08T08:31:51.170Z,73.58
2022-10-08T08:32:51.142Z,73.28
2022-10-08T08:33:51.176Z,73.48
2022-10-08T08:34:51.205Z,72.90
2022-10-08T08:35:51.237Z,73.28
2022-10-08T08:36:51.584Z,73.48
2022-10-08T08:37:51.303Z,73.77
2022-10-08T08:38:51.332Z,73.38
2022-10-08T08:39:51.364Z,73.67
2022-10-08T08:40:51.396Z,73.58
2022-10-08T08:41:51.435Z,73.67
2022-10-08T08:42:51.459Z,73.58
2022-10-08T08:43:51.787Z,73.58
2022-10-08T08:44:51.524Z,73.38
2022-10-08T08:45:51.640Z,73.48
2022-10-08T08:46:51.582Z,73.38
2022-10-08T08:47:51.615Z,73.58
2022-10-08T08:48:51.646Z,73.48
2022-10-08T08:49:51.681Z,73.67
2022-10-08T08:50:52.010Z,73.58
2022-10-08T08:51:51.741Z,73.77
2022-10-08T08:52:51.780Z,72.90
2022-10-08T08:53:51.800Z,73.09
2022-10-08T08:54:51.834Z,73.09
2022-10-08T08:55:51.872Z,72.90
2022-10-08T08:56:51.896Z,73.19
2022-10-08T08:57:52.226Z,72.61
2022-10-08T08:58:51.957Z,72.61
2022-10-08T08:59:51.992Z,73.00
2022-10-08T09:00:52.082Z,73.09
2022-10-08T09:01:52.087Z,73.09
2022-10-08T09:02:52.080Z,73.19
2022-10-08T09:03:52.416Z,72.80
2022-10-08T09:04:52.144Z,72.84
2022-10-08T09:05:52.274Z,72.71
2022-10-08T09:06:52.219Z,72.80
2022-10-08T09:07:52.243Z,72.61
2022-10-08T09:08:52.278Z,72.22
2022-10-08T09:09:52.606Z,72.52
2022-10-08T09:10:52.489Z,72.45
2022-10-08T09:11:52.369Z,72.42
2022-10-08T09:12:52.400Z,72.71
2022-10-08T09:13:52.431Z,72.71
2022-10-08T09:14:52.461Z,72.71
2022-10-08T09:15:52.797Z,72.61
2022-10-08T09:16:52.600Z,72.42
2022-10-08T09:17:52.577Z,72.42
2022-10-08T09:18:52.585Z,72.80
2022-10-08T09:19:52.619Z,72.71
2022-10-08T09:20:52.645Z,72.61
2022-10-08T09:21:52.680Z,72.90
2022-10-08T09:22:53.015Z,72.52
2022-10-08T09:23:52.746Z,72.80
2022-10-08T09:24:52.774Z,72.71
2022-10-08T09:25:52.812Z,72.61
2022-10-08T09:26:52.835Z,72.42
2022-10-08T09:27:52.873Z,72.61
2022-10-08T09:28:52.900Z,73.00
2022-10-08T09:29:53.238Z,72.80
2022-10-08T09:30:55.601Z,72.61
2022-10-08T09:31:52.996Z,72.80
2022-10-08T09:33:53.076Z,72.80
2022-10-08T09:34:53.090Z,72.61
2022-10-08T09:35:53.125Z,72.71
2022-10-08T09:36:53.450Z,72.71
2022-10-08T09:37:53.234Z,72.71
2022-10-08T09:38:53.216Z,72.22
2022-10-08T09:39:53.307Z,72.52
2022-10-08T09:40:53.279Z,72.55
2022-10-08T09:41:53.308Z,72.71
2022-10-08T09:42:53.340Z,72.64
2022-10-08T09:43:53.675Z,72.42
2022-10-08T09:44:53.406Z,72.22
2022-10-08T09:45:53.496Z,72.06
2022-10-08T09:46:53.466Z,71.84
2022-10-08T09:47:53.503Z,71.84
2022-10-08T09:48:53.531Z,71.78
2022-10-08T09:49:53.630Z,71.88
2022-10-08T09:50:53.897Z,71.97
2022-10-08T09:51:53.626Z,71.97
2022-10-08T09:52:53.656Z,71.97
2022-10-08T09:53:53.689Z,72.16
2022-10-08T09:54:53.721Z,71.39
2022-10-08T09:55:53.754Z,71.88
2022-10-08T09:56:53.783Z,71.48
2022-10-08T09:57:54.115Z,71.58
2022-10-08T09:58:53.995Z,71.78
2022-10-08T10:00:53.906Z,71.58
2022-10-08T10:01:53.937Z,71.78
2022-10-08T10:02:53.974Z,71.88
2022-10-08T10:03:54.055Z,71.58
2022-10-08T10:04:54.334Z,71.20
2022-10-08T10:05:54.138Z,71.78
2022-10-08T10:06:54.095Z,71.30
2022-10-08T10:07:54.137Z,71.88
2022-10-08T10:08:54.168Z,72.06
2022-10-08T10:09:54.203Z,71.88
2022-10-08T10:10:54.221Z,72.26
2022-10-08T10:11:54.554Z,72.06
2022-10-08T10:12:54.286Z,71.68
2022-10-08T10:13:54.322Z,71.78
2022-10-08T10:14:54.352Z,72.06
2022-10-08T10:15:54.382Z,72.16
2022-10-08T10:16:54.479Z,71.78
2022-10-08T10:17:54.448Z,71.78
2022-10-08T10:19:54.513Z,71.58
2022-10-08T10:20:54.541Z,71.68
2022-10-08T10:21:54.586Z,71.39
2022-10-08T10:22:54.601Z,71.68
2022-10-08T10:23:54.633Z,71.68
2022-10-08T10:24:54.666Z,72.06
2022-10-08T10:25:57.609Z,71.88
2022-10-08T10:26:54.727Z,71.58
2022-10-08T10:27:54.763Z,72.06
2022-10-08T10:28:54.796Z,71.68
2022-10-08T10:29:54.822Z,71.48
2022-10-08T10:31:54.891Z,71.97
2022-10-08T10:32:55.220Z,72.16
2022-10-08T10:33:54.952Z,72.16
2022-10-08T10:34:54.981Z,72.16
2022-10-08T10:35:55.017Z,71.97
2022-10-08T10:36:55.046Z,71.78
2022-10-08T10:37:55.097Z,71.48
2022-10-08T10:38:55.109Z,71.10
2022-10-08T10:39:55.440Z,70.72
2022-10-08T10:40:55.173Z,70.81
2022-10-08T10:41:55.201Z,70.62
2022-10-08T10:42:55.234Z,70.81
2022-10-08T10:43:55.266Z,71.20
2022-10-08T10:44:55.295Z,71.39
2022-10-08T10:45:55.374Z,70.81
2022-10-08T10:46:55.661Z,70.81
2022-10-08T10:47:55.392Z,71.00
2022-10-08T10:48:55.428Z,71.39
2022-10-08T10:49:55.460Z,71.39
2022-10-08T10:50:55.488Z,70.90
2022-10-08T10:51:55.519Z,70.72
2022-10-08T10:52:55.855Z,70.81
2022-10-08T10:53:55.601Z,70.72
2022-10-08T10:54:55.661Z,70.72
2022-10-08T10:55:55.645Z,70.72
2022-10-08T10:56:55.683Z,70.81
2022-10-08T10:57:55.717Z,70.72
2022-10-08T10:58:56.040Z,71.00
2022-10-08T10:59:55.780Z,70.81
2022-10-08T11:00:55.808Z,70.81
2022-10-08T11:01:55.919Z,70.62
2022-10-08T11:02:55.952Z,70.32
2022-10-08T11:03:55.898Z,70.62
2022-10-08T11:05:00.823Z,70.42
2022-10-08T11:05:55.964Z,69.94
2022-10-08T11:06:55.993Z,70.07
2022-10-08T11:07:56.027Z,70.14
2022-10-08T11:09:56.111Z,70.75
2022-10-08T11:10:56.156Z,70.26
2022-10-08T11:11:56.457Z,70.26
2022-10-08T11:12:56.186Z,70.14
2022-10-08T11:13:56.217Z,70.36
2022-10-08T11:14:56.250Z,70.17
2022-10-08T11:15:56.341Z,70.36
2022-10-08T11:16:56.311Z,69.98
2022-10-08T11:17:56.345Z,70.46
2022-10-08T11:18:56.677Z,70.14
2022-10-08T11:19:56.408Z,70.23
2022-10-08T11:20:56.443Z,69.94
2022-10-08T11:21:56.469Z,69.94
2022-10-08T11:22:56.508Z,70.46
2022-10-08T11:23:56.537Z,70.04
2022-10-08T11:24:56.565Z,70.32
2022-10-08T11:26:17.849Z,70.07
2022-10-08T11:26:56.629Z,69.94
2022-10-08T11:27:56.662Z,70.26
2022-10-08T11:28:56.693Z,69.56
2022-10-08T11:29:56.754Z,69.74
2022-10-08T11:30:56.821Z,69.26
2022-10-08T11:31:56.790Z,69.36
2022-10-08T11:32:57.146Z,69.36
2022-10-08T11:33:56.852Z,69.01
2022-10-08T11:34:56.889Z,68.82
2022-10-08T11:35:56.921Z,69.40
2022-10-08T11:36:57.013Z,69.59
2022-10-08T11:38:57.053Z,69.40
2022-10-08T11:39:57.363Z,68.91
2022-10-08T11:40:57.174Z,68.91
2022-10-08T11:41:57.135Z,68.72
2022-10-08T11:43:57.257Z,68.43
2022-10-08T11:44:57.385Z,69.10
2022-10-08T11:45:57.660Z,68.82
2022-10-08T11:46:57.768Z,69.10
2022-10-08T11:47:57.641Z,68.91
2022-10-08T11:48:57.570Z,68.72
2022-10-08T11:49:57.364Z,69.01
2022-10-08T11:50:57.396Z,69.01
2022-10-08T11:51:57.427Z,69.40
2022-10-08T11:52:57.460Z,69.20
2022-10-08T11:53:57.792Z,69.78
2022-10-08T11:54:57.529Z,69.68
2022-10-08T11:55:57.556Z,69.30
2022-10-08T11:56:57.589Z,69.01
2022-10-08T11:58:07.778Z,69.10
2022-10-08T11:58:57.665Z,69.40
2022-10-08T11:59:57.680Z,69.01
2022-10-08T12:00:58.031Z,69.01
2022-10-08T12:01:57.749Z,69.49
2022-10-08T12:02:57.903Z,69.30
2022-10-08T12:03:57.895Z,69.01
2022-10-08T12:04:57.852Z,68.62
2022-10-08T12:05:57.876Z,69.01
2022-10-08T12:06:57.931Z,69.46
2022-10-08T12:07:58.242Z,69.17
2022-10-08T12:08:57.989Z,69.36
2022-10-08T12:10:58.088Z,69.26
2022-10-08T12:11:58.079Z,69.20
2022-10-08T12:12:58.096Z,68.88
2022-10-08T12:13:58.154Z,69.56
2022-10-08T12:14:58.474Z,68.78
2022-10-08T12:15:58.260Z,69.07
2022-10-08T12:16:58.226Z,68.98
2022-10-08T12:17:58.258Z,69.07
2022-10-08T12:18:58.288Z,69.07
2022-10-08T12:19:58.320Z,68.59
2022-10-08T12:20:58.354Z,68.30
2022-10-08T12:21:58.684Z,68.68
2022-10-08T12:22:58.416Z,68.59
2022-10-08T12:23:58.450Z,68.59
2022-10-08T12:24:58.531Z,68.49
2022-10-08T12:25:59.069Z,68.88
2022-10-08T12:26:58.540Z,68.49
2022-10-08T12:27:58.592Z,68.49
2022-10-08T12:29:59.060Z,68.20
2022-10-08T12:30:58.727Z,68.49
2022-10-08T12:31:58.704Z,68.30
2022-10-08T12:32:58.735Z,68.30
2022-10-08T12:33:58.795Z,68.40
2022-10-08T12:34:58.805Z,68.68
2022-10-08T12:35:58.851Z,68.49
2022-10-08T12:36:58.865Z,68.01
2022-10-08T12:37:58.905Z,67.91
2022-10-08T12:38:58.929Z,68.01
2022-10-08T12:39:58.958Z,68.01
2022-10-08T12:40:58.995Z,67.62
2022-10-08T12:41:59.018Z,67.82
2022-10-08T12:42:59.459Z,67.82
2022-10-08T12:43:59.089Z,68.01
2022-10-08T12:44:59.117Z,67.72
2022-10-08T12:45:59.233Z,68.20
2022-10-08T12:46:59.251Z,67.72
2022-10-08T12:47:59.259Z,67.91
2022-10-08T12:48:59.551Z,67.91
2022-10-08T12:49:59.274Z,67.72
2022-10-08T12:50:59.307Z,67.62
2022-10-08T12:51:59.341Z,68.40
2022-10-08T12:52:59.369Z,68.40
2022-10-08T12:53:59.408Z,68.20
2022-10-08T12:55:59.761Z,67.72
2022-10-08T12:56:59.507Z,67.33
2022-10-08T12:57:59.525Z,67.43
2022-10-08T12:58:59.558Z,67.91
2022-10-08T12:59:59.590Z,67.43
2022-10-08T13:00:59.735Z,67.52
2022-10-08T13:02:00.028Z,67.72
2022-10-08T13:02:59.689Z,67.85
2022-10-08T13:03:59.718Z,67.72
2022-10-08T13:04:59.757Z,67.27
2022-10-08T13:05:59.780Z,67.27
2022-10-08T13:06:59.819Z,67.56